OMAAFMMI

Guest
Details From OMAA - Abu Dhabi Intl
To FMMI - Ivato
Flight Number -
Tags Generated
Created
Modified
Stats Distance 2,631 nm / 4,873 km
Max Altitude 0 ft / 0 m
Waypoints 3
Social Downloads 0
Likes 0
Share VATSIM

Download

Looking for another format? Having issues loading an existing format? Contact us
Advertisement - Login to hide

Notes

Generated

Route

OMAA IA FMMI

ID Type Via Altitude Latitude Longitude Leg Dist Tot Dist Heading (true) Name
O OMAA APT - 0 ft / 0 m 24.44439˚ 54.63521˚ - 0 nm - -
IA NDB - 0 ft / 0 m -18.79336˚ 47.45492˚ 2630 nm 2630 nm 190° / 189° ANTANANARIVO IVATO NDB
O FMMI APT - 0 ft / 0 m -18.79479˚ 47.46427˚ 0 nm 2631 nm 99° / 99° -

Altitude Profile

Advertisement - Login to hide

Weather


0- 5 10 15 20 25 30 35+ Temperature / ° C

Clouds and Precipitation
Forecast for 2018-05-27 18:00 UTC. Updated 3 hours ago

Ground ~20,000 ft ~40,000 ft Winds

OMAA

Details ICAO OMAA (AUH)
Name ABU DHABI INTL
Region United Arab Emirates
Timezone Asia/Dubai (UTC+4.0)
Stats Elevation 88 ft / 27 m (AMSL)
Location 24.433049° 54.651182°
Runways 1
Magnetic Variation 2.000° E

METAR

OMAA 272000Z 06006KT 030V100 CAVOK 32/22 Q1005 NOSIG

Decode

TAF

TAF OMAA 271700Z 2718/2900 05006KT 8000 NSC BECMG 2719/2721 VRB02KT BECMG 2801/2803 18010KT BECMG 2808/2810 32012KT PROB30 TEMPO 2811/2814 VRB15G25KT 4000 BLDU FEW045TCU BECMG 2816/2818 05006KT

Decode

Departure Runways

ID Width Length Bearing (true) Bearing (mag) Surface Threshold Offset Overrun Length
13 148 ft / 45 m 13,461 ft / 4,103 m 127.94° 125.94° Asphalt 0 ft / 0 m 180 ft / 55 m
31 148 ft / 45 m 13,461 ft / 4,103 m 307.95° 305.95° Asphalt 0 ft / 0 m 196 ft / 60 m

FMMI

Details ICAO FMMI (TNR)
Name IVATO
Region Comoros, Mayotte, Réunion and Madagascar
Timezone Indian/Antananarivo (UTC+3.0)
Stats Elevation 4,198 ft / 1,280 m (AMSL)
Location -18.796950° 47.478806°
Runways 1
Magnetic Variation 15.173° W

METAR

FMMI 272000Z 07004KT 9999 FEW020 15/14 Q1024 NOSIG

Decode

TAF

TAF FMMI 271100Z 2712/2818 VRB06KT 9999 SCT023 PROB30 2802/2806 0400 FG BKN004

Decode

Destination Runways

ID Width Length Bearing (true) Bearing (mag) Surface Threshold Offset Overrun Length
11 148 ft / 45 m 10,167 ft / 3,099 m 98.92° 114.09° Asphalt 0 ft / 0 m 90 ft / 27 m
29 148 ft / 45 m 10,167 ft / 3,099 m 278.91° 294.08° Asphalt 0 ft / 0 m 90 ft / 27 m

Approach Navaids

Runway Type Ident Frequency Range Bearing (true) Bearing (mag) Slope Elevation
11 Localiser IO 109.50 MHz 18 nm / 33 km 98.89° 114.06° - 4,125 ft / 1,257 m (AMSL)
11 Glidescope IO 109.50 MHz 10 nm / 19 km 98.91° 114.08° 3.00° 4,198 ft / 1,280 m (AMSL)